Time;durP1;ratioP1;P1;durP2;ratioP2;P2;SDS_P1;SDS_P2;PMS_P1;PMS_P2;Temp;Humidity;BMP_temperature;BMP_pressure;BME280_temperature;BME280_humidity;BME280_pressure;Samples;Min_cycle;Max_cycle;Signal;HPM_P1;HPM_P2
2021/03/27 00:00:00;;;;;;;;;;;;;;;;;;5078389;28;19943;-55
2021/03/27 00:02:26;;;;;;;;;;;;;;;;;;5078485;28;19944;-55
2021/03/27 00:04:53;;;;;;;;;;;;;;;;;;5097056;28;19912;-54
2021/03/27 00:07:20;;;;;;;;;;;;;;;;;;5119020;28;19911;-54
2021/03/27 00:09:46;;;;;;;;;;;;;;;;;;5119267;28;19915;-55
2021/03/27 00:12:13;;;;;;;;;;;;;;;;;;5118940;28;19916;-52
2021/03/27 00:14:39;;;;;;;;;;;;;;;;;;5102420;28;19919;-54
2021/03/27 00:17:06;;;;;;;;;;;;;;;;;;5098294;28;19919;-56
2021/03/27 00:19:34;;;;;;;;;;;;;;;;;;5118723;28;20207;-55
2021/03/27 00:22:01;;;;;;;;;;;;;;;;;;5091471;28;19920;-55
2021/03/27 00:24:28;;;;;;;;;;;;;;;;;;5091851;28;19923;-55
2021/03/27 00:26:54;;;;;;;;;;;;;;;;;;5086592;28;19921;-55
2021/03/27 00:29:21;;;;;;;;;;;;;;;;;;5077898;28;19943;-55
2021/03/27 00:31:48;;;;;;;;;;;;;;;;;;5077804;28;19913;-53
2021/03/27 00:34:14;;;;;;;;;;;;;;;;;;5089557;28;20226;-51
2021/03/27 00:36:41;;;;;;;;;;;;;;;;;;5113143;28;19927;-52
2021/03/27 00:39:07;;;;;;;;;;;;;;;;;;5118419;28;19942;-53
2021/03/27 00:41:34;;;;;;;;;;;;;;;;;;5118211;28;20021;-54
2021/03/27 00:44:01;;;;;;;;;;;;;;;;;;5108148;28;20349;-55
2021/03/27 00:46:27;;;;;;;;;;;;;;;;;;5118715;28;19918;-55
2021/03/27 00:48:54;;;;;;;;;;;;;;;;;;5084661;28;19920;-51
2021/03/27 00:51:20;;;;;;;;;;;;;;;;;;5093825;28;19920;-52
2021/03/27 00:53:47;;;;;;;;;;;;;;;;;;5100208;28;19912;-53
2021/03/27 00:56:14;;;;;;;;;;;;;;;;;;5100334;28;19931;-52
2021/03/27 00:58:40;;;;;;;;;;;;;;;;;;5100401;28;19922;-54
2021/03/27 01:01:08;;;;;;;;;;;;;;;;;;5098339;28;20341;-54
2021/03/27 01:03:35;;;;;;;;;;;;;;;;;;5082545;28;19919;-53
2021/03/27 01:06:07;;;;;;;;;;;;;;;;;;5107751;28;19919;-51
2021/03/27 01:08:53;;;;;;;;;;;;;;;;;;5100365;28;19923;-53
2021/03/27 01:11:35;;;;;;;;;;;;;;;;;;5118136;28;19919;-52
2021/03/27 01:14:02;;;;;;;;;;;;;;;;;;5083670;28;19911;-52
2021/03/27 01:16:28;;;;;;;;;;;;;;;;;;5117945;28;19920;-52
2021/03/27 01:18:55;;;;;;;;;;;;;;;;;;5100256;28;20242;-55
2021/03/27 01:21:21;;;;;;;;;;;;;;;;;;5117780;28;20303;-53
2021/03/27 01:23:48;;;;;;;;;;;;;;;;;;5117521;28;19912;-51
2021/03/27 01:26:14;;;;;;;;;;;;;;;;;;5117714;28;19918;-52
2021/03/27 01:28:41;;;;;;;;;;;;;;;;;;5117824;28;19924;-52
2021/03/27 01:31:08;;;;;;;;;;;;;;;;;;5117501;28;19942;-50
2021/03/27 01:33:34;;;;;;;;;;;;;;;;;;5117558;28;19918;-52
2021/03/27 01:36:01;;;;;;;;;;;;;;;;;;5117172;28;19919;-54
2021/03/27 01:38:27;;;;;;;;;;;;;;;;;;5117622;28;20306;-51
2021/03/27 01:40:54;;;;;;;;;;;;;;;;;;5117549;28;20325;-56
2021/03/27 01:43:21;;;;;;;;;;;;;;;;;;5114717;28;19912;-54
2021/03/27 01:45:47;;;;;;;;;;;;;;;;;;5117388;28;19927;-54
2021/03/27 01:48:14;;;;;;;;;;;;;;;;;;5117525;28;19919;-54
2021/03/27 01:50:40;;;;;;;;;;;;;;;;;;5117436;28;19911;-53
2021/03/27 01:53:07;;;;;;;;;;;;;;;;;;5116827;28;19915;-55
2021/03/27 01:55:33;;;;;;;;;;;;;;;;;;5106490;28;20315;-55
2021/03/27 01:58:00;;;;;;;;;;;;;;;;;;5076577;28;20331;-57
2021/03/27 02:00:26;;;;;;;;;;;;;;;;;;5076443;28;19917;-54
2021/03/27 02:02:53;;;;;;;;;;;;;;;;;;5076480;28;19924;-54
2021/03/27 02:05:19;;;;;;;;;;;;;;;;;;5098462;28;19912;-54
2021/03/27 02:07:50;;;;;;;;;;;;;;;;;;5117081;28;19916;-54
2021/03/27 02:10:16;;;;;;;;;;;;;;;;;;5116948;28;19916;-55
2021/03/27 02:12:43;;;;;;;;;;;;;;;;;;5117067;28;20411;-55
2021/03/27 02:15:10;;;;;;;;;;;;;;;;;;5116124;28;19919;-54
2021/03/27 02:17:36;;;;;;;;;;;;;;;;;;5116870;28;19921;-54
2021/03/27 02:20:03;;;;;;;;;;;;;;;;;;5116822;28;19946;-54
2021/03/27 02:22:29;;;;;;;;;;;;;;;;;;5116904;28;19919;-55
2021/03/27 02:24:56;;;;;;;;;;;;;;;;;;5116569;28;20238;-56
2021/03/27 02:27:22;;;;;;;;;;;;;;;;;;5116768;28;20225;-56
2021/03/27 02:29:49;;;;;;;;;;;;;;;;;;5116767;28;19911;-54
2021/03/27 02:32:15;;;;;;;;;;;;;;;;;;5116658;28;20329;-56
2021/03/27 02:34:42;;;;;;;;;;;;;;;;;;5103884;28;20291;-56
2021/03/27 02:37:08;;;;;;;;;;;;;;;;;;5114614;28;20203;-55
2021/03/27 02:39:35;;;;;;;;;;;;;;;;;;5106252;28;19988;-55
2021/03/27 02:42:02;;;;;;;;;;;;;;;;;;5075762;28;19916;-53
2021/03/27 02:44:28;;;;;;;;;;;;;;;;;;5085436;28;19916;-55
2021/03/27 02:46:55;;;;;;;;;;;;;;;;;;5095703;28;19935;-53
2021/03/27 02:49:21;;;;;;;;;;;;;;;;;;5095896;28;19912;-54
2021/03/27 02:51:48;;;;;;;;;;;;;;;;;;5095654;28;19916;-51
2021/03/27 02:54:14;;;;;;;;;;;;;;;;;;5115885;28;19947;-54
2021/03/27 02:56:41;;;;;;;;;;;;;;;;;;5116043;28;19919;-51
2021/03/27 02:59:07;;;;;;;;;;;;;;;;;;5115918;28;19912;-50
2021/03/27 03:01:34;;;;;;;;;;;;;;;;;;5115910;28;19942;-53
2021/03/27 03:04:00;;;;;;;;;;;;;;;;;;5115734;28;19911;-52
2021/03/27 03:06:27;;;;;;;;;;;;;;;;;;5115806;28;19923;-54
2021/03/27 03:08:54;;;;;;;;;;;;;;;;;;5116123;28;19916;-55
2021/03/27 03:11:20;;;;;;;;;;;;;;;;;;5115875;28;19912;-55
2021/03/27 03:13:47;;;;;;;;;;;;;;;;;;5112531;28;19919;-55
2021/03/27 03:16:14;;;;;;;;;;;;;;;;;;5076748;28;20227;-56
2021/03/27 03:18:41;;;;;;;;;;;;;;;;;;5075487;28;20239;-57
2021/03/27 03:21:07;;;;;;;;;;;;;;;;;;5075142;28;19913;-58
2021/03/27 03:23:34;;;;;;;;;;;;;;;;;;5076135;28;20243;-57
2021/03/27 03:26:01;;;;;;;;;;;;;;;;;;5095813;28;19923;-55
2021/03/27 03:28:27;;;;;;;;;;;;;;;;;;5119991;28;20330;-56
2021/03/27 03:30:54;;;;;;;;;;;;;;;;;;5119743;28;20303;-59
2021/03/27 03:33:20;;;;;;;;;;;;;;;;;;5107474;28;20308;-57
2021/03/27 03:35:47;;;;;;;;;;;;;;;;;;5105855;28;19912;-52
2021/03/27 03:38:13;;;;;;;;;;;;;;;;;;5119927;28;19916;-52
2021/03/27 03:40:40;;;;;;;;;;;;;;;;;;5106813;28;19912;-53
2021/03/27 03:43:06;;;;;;;;;;;;;;;;;;5099143;28;19916;-52
2021/03/27 03:45:33;;;;;;;;;;;;;;;;;;5099001;28;19920;-51
2021/03/27 03:48:02;;;;;;;;;;;;;;;;;;5099441;28;19916;-53
2021/03/27 03:50:29;;;;;;;;;;;;;;;;;;5100633;28;19913;-52
2021/03/27 03:52:56;;;;;;;;;;;;;;;;;;5085339;28;20246;-53
2021/03/27 03:55:22;;;;;;;;;;;;;;;;;;5099036;28;19927;-56
2021/03/27 03:57:49;;;;;;;;;;;;;;;;;;5119521;28;20381;-55
2021/03/27 04:00:15;;;;;;;;;;;;;;;;;;5119619;28;19911;-54
2021/03/27 04:02:42;;;;;;;;;;;;;;;;;;5119518;28;20230;-55
2021/03/27 04:05:08;;;;;;;;;;;;;;;;;;5117066;28;19916;-53
2021/03/27 04:07:35;;;;;;;;;;;;;;;;;;5110408;28;19939;-53
2021/03/27 04:10:02;;;;;;;;;;;;;;;;;;5078562;28;20234;-55
2021/03/27 04:12:29;;;;;;;;;;;;;;;;;;5078746;28;19912;-55
2021/03/27 04:14:56;;;;;;;;;;;;;;;;;;5089010;28;20199;-54
2021/03/27 04:17:22;;;;;;;;;;;;;;;;;;5119316;28;19920;-55
2021/03/27 04:19:49;;;;;;;;;;;;;;;;;;5118925;28;19922;-54
2021/03/27 04:22:15;;;;;;;;;;;;;;;;;;5118855;28;19911;-57
2021/03/27 04:24:42;;;;;;;;;;;;;;;;;;5117953;28;19923;-54
2021/03/27 04:27:08;;;;;;;;;;;;;;;;;;5118802;28;19919;-51
2021/03/27 04:29:35;;;;;;;;;;;;;;;;;;5118809;28;19918;-50
2021/03/27 04:32:02;;;;;;;;;;;;;;;;;;5118899;28;19912;-49
2021/03/27 04:34:28;;;;;;;;;;;;;;;;;;5118515;28;19911;-52
2021/03/27 04:36:55;;;;;;;;;;;;;;;;;;5118134;28;19919;-51
2021/03/27 04:39:21;;;;;;;;;;;;;;;;;;5118733;28;19915;-49
2021/03/27 04:41:48;;;;;;;;;;;;;;;;;;5118464;28;19942;-51
2021/03/27 04:44:14;;;;;;;;;;;;;;;;;;5113882;28;19916;-51
2021/03/27 04:46:41;;;;;;;;;;;;;;;;;;5118372;28;20314;-51
2021/03/27 04:49:07;;;;;;;;;;;;;;;;;;5118321;28;20298;-51
2021/03/27 04:51:34;;;;;;;;;;;;;;;;;;5118393;28;19922;-55
2021/03/27 04:54:01;;;;;;;;;;;;;;;;;;5118317;28;20242;-52
2021/03/27 04:56:27;;;;;;;;;;;;;;;;;;5118521;28;19924;-52
2021/03/27 04:58:54;;;;;;;;;;;;;;;;;;5118548;28;19916;-52
2021/03/27 05:01:20;;;;;;;;;;;;;;;;;;5097519;28;19912;-54
2021/03/27 05:03:47;;;;;;;;;;;;;;;;;;5077587;28;19913;-56
2021/03/27 05:06:13;;;;;;;;;;;;;;;;;;5109087;28;19919;-57
2021/03/27 05:08:40;;;;;;;;;;;;;;;;;;5118293;28;19915;-52
2021/03/27 05:11:06;;;;;;;;;;;;;;;;;;5118063;28;19923;-51
2021/03/27 05:13:33;;;;;;;;;;;;;;;;;;5118345;28;19912;-55
2021/03/27 05:16:00;;;;;;;;;;;;;;;;;;5099862;28;19919;-50
2021/03/27 05:18:26;;;;;;;;;;;;;;;;;;5103015;28;20357;-52
2021/03/27 05:20:53;;;;;;;;;;;;;;;;;;5071044;28;19919;-55
2021/03/27 05:23:19;;;;;;;;;;;;;;;;;;5097540;28;20299;-51
2021/03/27 05:25:46;;;;;;;;;;;;;;;;;;5089759;28;19916;-52
2021/03/27 05:28:12;;;;;;;;;;;;;;;;;;5077125;28;19920;-52
2021/03/27 05:30:39;;;;;;;;;;;;;;;;;;5077015;28;19919;-51
2021/03/27 05:33:05;;;;;;;;;;;;;;;;;;5076942;28;19919;-56
2021/03/27 05:35:32;;;;;;;;;;;;;;;;;;5095995;28;19923;-51
2021/03/27 05:37:58;;;;;;;;;;;;;;;;;;5117612;28;19922;-55
2021/03/27 05:40:25;;;;;;;;;;;;;;;;;;5117608;28;19919;-50
2021/03/27 05:42:52;;;;;;;;;;;;;;;;;;5117726;28;19912;-51
2021/03/27 05:45:18;;;;;;;;;;;;;;;;;;5105805;28;19920;-52
2021/03/27 05:47:45;;;;;;;;;;;;;;;;;;5097115;28;20226;-54
2021/03/27 05:50:11;;;;;;;;;;;;;;;;;;5116688;28;20310;-51
2021/03/27 05:52:38;;;;;;;;;;;;;;;;;;5117604;28;20255;-51
2021/03/27 05:55:04;;;;;;;;;;;;;;;;;;5117118;28;19928;-50
2021/03/27 05:57:31;;;;;;;;;;;;;;;;;;5095744;28;19921;-50
2021/03/27 05:59:57;;;;;;;;;;;;;;;;;;5076374;28;19917;-58
2021/03/27 06:02:24;;;;;;;;;;;;;;;;;;5076514;28;19924;-56
2021/03/27 06:04:51;;;;;;;;;;;;;;;;;;5083152;28;19943;-54
2021/03/27 06:07:17;;;;;;;;;;;;;;;;;;5098963;28;19923;-56
2021/03/27 06:09:44;;;;;;;;;;;;;;;;;;5096575;28;19916;-54
2021/03/27 06:12:10;;;;;;;;;;;;;;;;;;5096852;28;19916;-52
2021/03/27 06:14:37;;;;;;;;;;;;;;;;;;5096431;28;19912;-50
2021/03/27 06:17:03;;;;;;;;;;;;;;;;;;5096561;28;19923;-53
2021/03/27 06:19:30;;;;;;;;;;;;;;;;;;5096438;28;19912;-53
2021/03/27 06:21:56;;;;;;;;;;;;;;;;;;5096529;28;19913;-49
2021/03/27 06:24:23;;;;;;;;;;;;;;;;;;5102769;28;19923;-51
2021/03/27 06:26:49;;;;;;;;;;;;;;;;;;5096425;28;19913;-60
2021/03/27 06:29:16;;;;;;;;;;;;;;;;;;5095751;28;19920;-51
2021/03/27 06:31:43;;;;;;;;;;;;;;;;;;5076580;28;19924;-55
2021/03/27 06:34:09;;;;;;;;;;;;;;;;;;5076082;28;19923;-56
2021/03/27 06:36:36;;;;;;;;;;;;;;;;;;5110964;28;20226;-49
2021/03/27 06:39:03;;;;;;;;;;;;;;;;;;5100932;28;19913;-49
2021/03/27 06:41:29;;;;;;;;;;;;;;;;;;5075908;28;19939;-52
2021/03/27 06:43:56;;;;;;;;;;;;;;;;;;5075936;28;19917;-55
2021/03/27 06:46:22;;;;;;;;;;;;;;;;;;5082847;28;19912;-55
2021/03/27 06:48:49;;;;;;;;;;;;;;;;;;5076042;28;19912;-52
2021/03/27 06:51:15;;;;;;;;;;;;;;;;;;5074910;28;20334;-52
2021/03/27 06:53:42;;;;;;;;;;;;;;;;;;5075987;28;19919;-51
2021/03/27 06:56:08;;;;;;;;;;;;;;;;;;5091624;28;19920;-57
2021/03/27 06:58:35;;;;;;;;;;;;;;;;;;5096177;28;19927;-52
2021/03/27 07:01:02;;;;;;;;;;;;;;;;;;5098050;28;19912;-51
2021/03/27 07:03:28;;;;;;;;;;;;;;;;;;5088351;28;19919;-55
2021/03/27 07:05:55;;;;;;;;;;;;;;;;;;5102354;28;20321;-57
2021/03/27 07:08:21;;;;;;;;;;;;;;;;;;5120616;28;20333;-55
2021/03/27 07:10:48;;;;;;;;;;;;;;;;;;5096094;28;19924;-56
2021/03/27 07:13:14;;;;;;;;;;;;;;;;;;5079216;28;19924;-52
2021/03/27 07:15:41;;;;;;;;;;;;;;;;;;5091069;28;19912;-51
2021/03/27 07:18:10;;;;;;;;;;;;;;;;;;5099799;28;19923;-55
2021/03/27 07:20:37;;;;;;;;;;;;;;;;;;5099837;28;19923;-52
2021/03/27 07:23:04;;;;;;;;;;;;;;;;;;5095092;28;19912;-50
2021/03/27 07:25:30;;;;;;;;;;;;;;;;;;5089022;28;20263;-51
2021/03/27 07:27:57;;;;;;;;;;;;;;;;;;5099791;28;20196;-51
2021/03/27 07:30:23;;;;;;;;;;;;;;;;;;5102085;28;19919;-55
2021/03/27 07:32:50;;;;;;;;;;;;;;;;;;5120341;28;19918;-53
2021/03/27 07:35:16;;;;;;;;;;;;;;;;;;5119273;28;20340;-52
2021/03/27 07:37:43;;;;;;;;;;;;;;;;;;5116535;28;20200;-50
2021/03/27 07:40:10;;;;;;;;;;;;;;;;;;5086921;28;19916;-53
2021/03/27 07:42:36;;;;;;;;;;;;;;;;;;5099610;28;19919;-54
2021/03/27 07:45:03;;;;;;;;;;;;;;;;;;5107376;28;19923;-53
2021/03/27 07:47:29;;;;;;;;;;;;;;;;;;5099480;28;19912;-53
2021/03/27 07:49:56;;;;;;;;;;;;;;;;;;5099067;28;19912;-52
2021/03/27 07:52:22;;;;;;;;;;;;;;;;;;5097132;28;19912;-50
2021/03/27 07:54:49;;;;;;;;;;;;;;;;;;5099046;28;19931;-51
2021/03/27 07:57:16;;;;;;;;;;;;;;;;;;5099195;28;19938;-57
2021/03/27 07:59:42;;;;;;;;;;;;;;;;;;5082230;28;19912;-53
2021/03/27 08:02:11;;;;;;;;;;;;;;;;;;5079000;28;19924;-59
2021/03/27 08:04:37;;;;;;;;;;;;;;;;;;5104744;28;19916;-54
2021/03/27 08:07:04;;;;;;;;;;;;;;;;;;5113094;28;19915;-56
2021/03/27 08:09:31;;;;;;;;;;;;;;;;;;5118906;28;19911;-53
2021/03/27 08:11:57;;;;;;;;;;;;;;;;;;5118683;28;19912;-54
2021/03/27 08:14:24;;;;;;;;;;;;;;;;;;5119041;28;19911;-52
2021/03/27 08:16:50;;;;;;;;;;;;;;;;;;5096612;28;19923;-52
2021/03/27 08:19:17;;;;;;;;;;;;;;;;;;5078584;28;19923;-55
2021/03/27 08:21:44;;;;;;;;;;;;;;;;;;5078598;28;19912;-52
2021/03/27 08:24:10;;;;;;;;;;;;;;;;;;5099318;28;20364;-58
2021/03/27 08:26:37;;;;;;;;;;;;;;;;;;5113298;28;19947;-45
2021/03/27 08:29:03;;;;;;;;;;;;;;;;;;5118548;28;19912;-56
2021/03/27 08:31:30;;;;;;;;;;;;;;;;;;5118621;28;19912;-54
2021/03/27 08:33:57;;;;;;;;;;;;;;;;;;5118638;28;20219;-47
2021/03/27 08:36:23;;;;;;;;;;;;;;;;;;5117282;28;20321;-52
2021/03/27 08:38:50;;;;;;;;;;;;;;;;;;5118281;28;20307;-51
2021/03/27 08:41:16;;;;;;;;;;;;;;;;;;5118063;28;20275;-57
2021/03/27 08:43:43;;;;;;;;;;;;;;;;;;5108008;28;20352;-53
2021/03/27 08:46:09;;;;;;;;;;;;;;;;;;5096404;28;19919;-47
2021/03/27 08:48:36;;;;;;;;;;;;;;;;;;5096316;28;19923;-50
2021/03/27 08:51:02;;;;;;;;;;;;;;;;;;5096352;28;19919;-50
2021/03/27 08:53:29;;;;;;;;;;;;;;;;;;5095509;28;19912;-42
2021/03/27 08:55:55;;;;;;;;;;;;;;;;;;5096073;28;19927;-43
2021/03/27 08:58:22;;;;;;;;;;;;;;;;;;5094870;28;19947;-44
2021/03/27 09:00:49;;;;;;;;;;;;;;;;;;5096575;28;19923;-47
2021/03/27 09:03:15;;;;;;;;;;;;;;;;;;5118063;28;19927;-48
2021/03/27 09:05:42;;;;;;;;;;;;;;;;;;5116518;28;19919;-43
2021/03/27 09:08:17;;;;;;;;;;;;;;;;;;5117687;28;20338;-45
2021/03/27 09:10:44;;;;;;;;;;;;;;;;;;5096680;28;19912;-51
2021/03/27 09:13:10;;;;;;;;;;;;;;;;;;5113952;28;19919;-53
2021/03/27 09:15:37;;;;;;;;;;;;;;;;;;5114089;28;19912;-53
2021/03/27 09:18:03;;;;;;;;;;;;;;;;;;5117737;28;19920;-58
2021/03/27 09:20:30;;;;;;;;;;;;;;;;;;5116775;28;19912;-51
2021/03/27 09:22:57;;;;;;;;;;;;;;;;;;5117411;28;19911;-50
2021/03/27 09:25:23;;;;;;;;;;;;;;;;;;5111505;28;20038;-54
2021/03/27 09:27:50;;;;;;;;;;;;;;;;;;5097304;28;20337;-66
2021/03/27 09:30:16;;;;;;;;;;;;;;;;;;5096972;28;19912;-53
2021/03/27 09:32:43;;;;;;;;;;;;;;;;;;5096877;28;19912;-46
2021/03/27 09:35:09;;;;;;;;;;;;;;;;;;5096563;28;19924;-55
2021/03/27 09:37:36;;;;;;;;;;;;;;;;;;5096893;28;19916;-53
2021/03/27 09:40:02;;;;;;;;;;;;;;;;;;5107395;28;19912;-46
2021/03/27 09:42:29;;;;;;;;;;;;;;;;;;5076484;28;19920;-42
2021/03/27 09:44:56;;;;;;;;;;;;;;;;;;5094531;28;19931;-53
2021/03/27 09:47:22;;;;;;;;;;;;;;;;;;5117569;28;19919;-52
2021/03/27 09:49:49;;;;;;;;;;;;;;;;;;5117418;28;19919;-53
2021/03/27 09:52:16;;;;;;;;;;;;;;;;;;5082118;28;19917;-51
2021/03/27 09:54:43;;;;;;;;;;;;;;;;;;5076557;28;19920;-57
2021/03/27 09:57:09;;;;;;;;;;;;;;;;;;5095251;28;19920;-52
2021/03/27 09:59:36;;;;;;;;;;;;;;;;;;5115399;28;19912;-53
2021/03/27 10:02:03;;;;;;;;;;;;;;;;;;5104028;28;19912;-52
2021/03/27 10:04:29;;;;;;;;;;;;;;;;;;5096734;28;19912;-52
2021/03/27 10:06:56;;;;;;;;;;;;;;;;;;5096115;28;19923;-49
2021/03/27 10:09:22;;;;;;;;;;;;;;;;;;5096824;28;20250;-55
2021/03/27 10:11:49;;;;;;;;;;;;;;;;;;5116992;28;19919;-54
2021/03/27 10:14:15;;;;;;;;;;;;;;;;;;5117003;28;19924;-67
2021/03/27 10:16:42;;;;;;;;;;;;;;;;;;5096749;28;19921;-52
2021/03/27 10:19:09;;;;;;;;;;;;;;;;;;5090176;28;19917;-53
2021/03/27 10:21:35;;;;;;;;;;;;;;;;;;5076264;28;19916;-57
2021/03/27 10:24:02;;;;;;;;;;;;;;;;;;5076181;28;19916;-51
2021/03/27 10:26:30;;;;;;;;;;;;;;;;;;5088134;28;19927;-53
2021/03/27 10:28:56;;;;;;;;;;;;;;;;;;5078771;28;19919;-50
2021/03/27 10:31:23;;;;;;;;;;;;;;;;;;5116888;28;19923;-55
2021/03/27 10:33:49;;;;;;;;;;;;;;;;;;5116813;28;19919;-56
2021/03/27 10:36:16;;;;;;;;;;;;;;;;;;5105608;28;19912;-55
2021/03/27 10:38:43;;;;;;;;;;;;;;;;;;5096377;28;19916;-56
2021/03/27 10:41:10;;;;;;;;;;;;;;;;;;5096038;28;19919;-61
2021/03/27 10:43:37;;;;;;;;;;;;;;;;;;5116382;28;19919;-57
2021/03/27 10:46:05;;;;;;;;;;;;;;;;;;5115715;28;20478;-55
2021/03/27 10:48:31;;;;;;;;;;;;;;;;;;5116363;28;19911;-54
2021/03/27 10:50:58;;;;;;;;;;;;;;;;;;5115999;28;19919;-54
2021/03/27 10:53:24;;;;;;;;;;;;;;;;;;5111310;28;19912;-52
2021/03/27 10:55:51;;;;;;;;;;;;;;;;;;5063593;28;19916;-52
2021/03/27 10:58:18;;;;;;;;;;;;;;;;;;5116092;28;19923;-59
2021/03/27 11:00:44;;;;;;;;;;;;;;;;;;5116217;28;19912;-54
2021/03/27 11:03:11;;;;;;;;;;;;;;;;;;5116078;28;20350;-62
2021/03/27 11:05:37;;;;;;;;;;;;;;;;;;5111664;28;19916;-56
2021/03/27 11:08:04;;;;;;;;;;;;;;;;;;5083340;28;19919;-66
2021/03/27 11:10:31;;;;;;;;;;;;;;;;;;5075481;28;19917;-54
2021/03/27 11:12:57;;;;;;;;;;;;;;;;;;5082944;28;19920;-57
2021/03/27 11:15:24;;;;;;;;;;;;;;;;;;5095443;28;20307;-66
2021/03/27 11:17:50;;;;;;;;;;;;;;;;;;5078770;28;19951;-51
2021/03/27 11:20:17;;;;;;;;;;;;;;;;;;5075272;28;19934;-52
2021/03/27 11:22:43;;;;;;;;;;;;;;;;;;5075344;28;20180;-54
2021/03/27 11:25:10;;;;;;;;;;;;;;;;;;5075233;28;20300;-53
2021/03/27 11:27:37;;;;;;;;;;;;;;;;;;5094757;28;20231;-58
2021/03/27 11:30:03;;;;;;;;;;;;;;;;;;5115916;28;19912;-45
2021/03/27 11:32:30;;;;;;;;;;;;;;;;;;5115801;28;19911;-54
2021/03/27 11:34:57;;;;;;;;;;;;;;;;;;5114346;28;19916;-62
2021/03/27 11:37:23;;;;;;;;;;;;;;;;;;5094792;28;19927;-63
2021/03/27 11:39:50;;;;;;;;;;;;;;;;;;5093861;28;19919;-62
2021/03/27 11:42:16;;;;;;;;;;;;;;;;;;5115887;28;19966;-66
2021/03/27 11:44:43;;;;;;;;;;;;;;;;;;5115914;28;19927;-66
2021/03/27 11:47:10;;;;;;;;;;;;;;;;;;5116610;28;19912;-62
2021/03/27 11:49:36;;;;;;;;;;;;;;;;;;5099165;28;19912;-60
2021/03/27 11:52:04;;;;;;;;;;;;;;;;;;5099326;28;20242;-65
2021/03/27 11:54:31;;;;;;;;;;;;;;;;;;5094938;28;20303;-65
2021/03/27 11:56:57;;;;;;;;;;;;;;;;;;5079007;28;19916;-60
2021/03/27 11:59:42;;;;;;;;;;;;;;;;;;5083350;28;19922;-65
2021/03/27 12:02:09;;;;;;;;;;;;;;;;;;5088217;28;19913;-60
2021/03/27 12:04:35;;;;;;;;;;;;;;;;;;5078874;28;20231;-67
2021/03/27 12:07:02;;;;;;;;;;;;;;;;;;5082413;28;19915;-52
2021/03/27 12:09:29;;;;;;;;;;;;;;;;;;5098669;28;19942;-54
2021/03/27 12:11:55;;;;;;;;;;;;;;;;;;5081355;28;20221;-53
2021/03/27 12:14:22;;;;;;;;;;;;;;;;;;5099016;28;19920;-60
2021/03/27 12:16:48;;;;;;;;;;;;;;;;;;5091980;28;19912;-51
2021/03/27 12:19:15;;;;;;;;;;;;;;;;;;5080942;28;19935;-50
2021/03/27 12:21:41;;;;;;;;;;;;;;;;;;5119270;28;20218;-50
2021/03/27 12:24:08;;;;;;;;;;;;;;;;;;5119037;28;19912;-50
2021/03/27 12:26:35;;;;;;;;;;;;;;;;;;5119225;28;19916;-51
2021/03/27 12:29:01;;;;;;;;;;;;;;;;;;5118695;28;19912;-51
2021/03/27 12:31:28;;;;;;;;;;;;;;;;;;5119059;28;19916;-51
2021/03/27 12:33:54;;;;;;;;;;;;;;;;;;5106549;28;19912;-51
2021/03/27 12:36:21;;;;;;;;;;;;;;;;;;5082471;28;19919;-50
2021/03/27 12:38:48;;;;;;;;;;;;;;;;;;5118611;28;19923;-52
2021/03/27 12:41:14;;;;;;;;;;;;;;;;;;5096329;28;19923;-51
2021/03/27 12:43:41;;;;;;;;;;;;;;;;;;5078101;28;19920;-49
2021/03/27 12:46:07;;;;;;;;;;;;;;;;;;5078162;28;19920;-49
2021/03/27 12:48:34;;;;;;;;;;;;;;;;;;5078218;28;19943;-53
2021/03/27 12:51:00;;;;;;;;;;;;;;;;;;5094197;28;19942;-49
2021/03/27 12:53:27;;;;;;;;;;;;;;;;;;5118589;28;19919;-49
2021/03/27 12:55:54;;;;;;;;;;;;;;;;;;5118503;28;19912;-49
2021/03/27 12:58:20;;;;;;;;;;;;;;;;;;5118236;28;19920;-51
2021/03/27 13:00:47;;;;;;;;;;;;;;;;;;5118022;28;19916;-50
2021/03/27 13:03:14;;;;;;;;;;;;;;;;;;5091029;28;20646;-51
2021/03/27 13:05:40;;;;;;;;;;;;;;;;;;5091633;28;19912;-52
2021/03/27 13:08:07;;;;;;;;;;;;;;;;;;5118346;28;19923;-53
2021/03/27 13:10:33;;;;;;;;;;;;;;;;;;5117870;28;19919;-51
2021/03/27 13:13:00;;;;;;;;;;;;;;;;;;5118240;28;19923;-53
2021/03/27 13:15:26;;;;;;;;;;;;;;;;;;5118325;28;20330;-51
2021/03/27 13:17:53;;;;;;;;;;;;;;;;;;5118421;28;19916;-52
2021/03/27 13:20:20;;;;;;;;;;;;;;;;;;5090630;28;20346;-55
2021/03/27 13:22:46;;;;;;;;;;;;;;;;;;5079817;28;19916;-52
2021/03/27 13:25:13;;;;;;;;;;;;;;;;;;5097489;28;20323;-49
2021/03/27 13:27:39;;;;;;;;;;;;;;;;;;5117833;28;19916;-51
2021/03/27 13:30:06;;;;;;;;;;;;;;;;;;5099620;28;19923;-51
2021/03/27 13:32:34;;;;;;;;;;;;;;;;;;5117982;28;19916;-49
2021/03/27 13:35:00;;;;;;;;;;;;;;;;;;5117467;28;19923;-51
2021/03/27 13:37:27;;;;;;;;;;;;;;;;;;5117717;28;19919;-51
2021/03/27 13:39:53;;;;;;;;;;;;;;;;;;5111590;28;19942;-53
2021/03/27 13:42:20;;;;;;;;;;;;;;;;;;5097328;28;19919;-51
2021/03/27 13:44:47;;;;;;;;;;;;;;;;;;5117395;28;19919;-52
2021/03/27 13:47:13;;;;;;;;;;;;;;;;;;5086350;28;19913;-49
2021/03/27 13:49:40;;;;;;;;;;;;;;;;;;5079646;28;19919;-50
2021/03/27 13:52:06;;;;;;;;;;;;;;;;;;5096631;28;19916;-51
2021/03/27 13:54:33;;;;;;;;;;;;;;;;;;5096759;28;20307;-49
2021/03/27 13:56:59;;;;;;;;;;;;;;;;;;5095270;28;19916;-53
2021/03/27 13:59:26;;;;;;;;;;;;;;;;;;5077253;28;20304;-51
2021/03/27 14:01:53;;;;;;;;;;;;;;;;;;5094690;28;19912;-54
2021/03/27 14:04:19;;;;;;;;;;;;;;;;;;5076303;28;19916;-51
2021/03/27 14:06:46;;;;;;;;;;;;;;;;;;5087270;28;19916;-51
2021/03/27 14:09:13;;;;;;;;;;;;;;;;;;5076066;28;19912;-58
2021/03/27 14:11:39;;;;;;;;;;;;;;;;;;5094976;28;19913;-56
2021/03/27 14:14:06;;;;;;;;;;;;;;;;;;5083083;28;19921;-52
2021/03/27 14:16:32;;;;;;;;;;;;;;;;;;5075406;28;19913;-56
2021/03/27 14:18:59;;;;;;;;;;;;;;;;;;5076091;28;19920;-53
2021/03/27 14:21:25;;;;;;;;;;;;;;;;;;5089812;28;19912;-51
2021/03/27 14:23:52;;;;;;;;;;;;;;;;;;5096012;28;19912;-53
2021/03/27 14:26:22;;;;;;;;;;;;;;;;;;5096351;28;19916;-52
2021/03/27 14:28:48;;;;;;;;;;;;;;;;;;5116373;28;19937;-50
2021/03/27 14:31:15;;;;;;;;;;;;;;;;;;5116178;28;19945;-51
2021/03/27 14:33:42;;;;;;;;;;;;;;;;;;5109690;28;19912;-52
2021/03/27 14:36:09;;;;;;;;;;;;;;;;;;5098115;28;19919;-58
2021/03/27 14:38:36;;;;;;;;;;;;;;;;;;5116155;28;19920;-56
2021/03/27 14:41:02;;;;;;;;;;;;;;;;;;5112925;28;19920;-53
2021/03/27 14:43:29;;;;;;;;;;;;;;;;;;5081134;28;19912;-54
2021/03/27 14:45:55;;;;;;;;;;;;;;;;;;5076047;28;19983;-51
2021/03/27 14:48:22;;;;;;;;;;;;;;;;;;5076088;28;19912;-53
2021/03/27 14:50:48;;;;;;;;;;;;;;;;;;5076552;28;20216;-55
2021/03/27 14:53:15;;;;;;;;;;;;;;;;;;5098640;28;20307;-53
2021/03/27 14:55:41;;;;;;;;;;;;;;;;;;5116588;28;20298;-51
2021/03/27 14:58:08;;;;;;;;;;;;;;;;;;5116618;28;19951;-57
2021/03/27 15:00:35;;;;;;;;;;;;;;;;;;5116431;28;19920;-51
2021/03/27 15:03:01;;;;;;;;;;;;;;;;;;5115273;28;19916;-59
2021/03/27 15:05:28;;;;;;;;;;;;;;;;;;5116171;28;20302;-53
2021/03/27 15:07:54;;;;;;;;;;;;;;;;;;5079886;28;20365;-52
2021/03/27 15:10:21;;;;;;;;;;;;;;;;;;5075708;28;19927;-56
2021/03/27 15:12:47;;;;;;;;;;;;;;;;;;5082242;28;19913;-52
2021/03/27 15:15:14;;;;;;;;;;;;;;;;;;5075753;28;19923;-50
2021/03/27 15:17:41;;;;;;;;;;;;;;;;;;5075653;28;20228;-51
2021/03/27 15:20:07;;;;;;;;;;;;;;;;;;5075638;28;19923;-51
2021/03/27 15:22:34;;;;;;;;;;;;;;;;;;5093191;28;19913;-52
2021/03/27 15:27:45;;;;;;;;;;;;;;;;;;5120226;28;19923;-51
2021/03/27 15:30:12;;;;;;;;;;;;;;;;;;5120290;28;19918;-51
2021/03/27 15:32:39;;;;;;;;;;;;;;;;;;5119953;28;19912;-55
2021/03/27 15:35:05;;;;;;;;;;;;;;;;;;5101949;28;20294;-52
2021/03/27 15:37:32;;;;;;;;;;;;;;;;;;5120111;28;20341;-55
2021/03/27 15:39:58;;;;;;;;;;;;;;;;;;5115294;28;20242;-55
2021/03/27 15:42:25;;;;;;;;;;;;;;;;;;5099336;28;20212;-54
2021/03/27 15:44:51;;;;;;;;;;;;;;;;;;5101878;28;20341;-51
2021/03/27 15:47:18;;;;;;;;;;;;;;;;;;5119537;28;20234;-55
2021/03/27 15:49:44;;;;;;;;;;;;;;;;;;5094693;28;19920;-54
2021/03/27 15:52:11;;;;;;;;;;;;;;;;;;5089026;28;19912;-58
2021/03/27 15:54:37;;;;;;;;;;;;;;;;;;5078898;28;19923;-58
2021/03/27 15:57:04;;;;;;;;;;;;;;;;;;5088417;28;19923;-63
2021/03/27 15:59:31;;;;;;;;;;;;;;;;;;5089377;28;19916;-52
2021/03/27 16:01:57;;;;;;;;;;;;;;;;;;5100422;28;19921;-48
2021/03/27 16:04:24;;;;;;;;;;;;;;;;;;5119323;28;19918;-47
2021/03/27 16:06:50;;;;;;;;;;;;;;;;;;5118846;28;19919;-50
2021/03/27 16:09:17;;;;;;;;;;;;;;;;;;5118364;28;19924;-47
2021/03/27 16:11:44;;;;;;;;;;;;;;;;;;5112807;28;19927;-49
2021/03/27 16:14:10;;;;;;;;;;;;;;;;;;5098845;28;19916;-49
2021/03/27 16:16:37;;;;;;;;;;;;;;;;;;5093939;28;19923;-48
2021/03/27 16:19:03;;;;;;;;;;;;;;;;;;5078147;28;19921;-51
2021/03/27 16:21:30;;;;;;;;;;;;;;;;;;5081961;28;19912;-49
2021/03/27 16:23:56;;;;;;;;;;;;;;;;;;5097746;28;19916;-49
2021/03/27 16:26:23;;;;;;;;;;;;;;;;;;5097552;28;20307;-49
2021/03/27 16:28:50;;;;;;;;;;;;;;;;;;5089678;28;19913;-52
2021/03/27 16:31:16;;;;;;;;;;;;;;;;;;5091672;28;19920;-53
2021/03/27 16:33:43;;;;;;;;;;;;;;;;;;5097757;28;19920;-52
2021/03/27 16:36:09;;;;;;;;;;;;;;;;;;5109594;28;19916;-52
2021/03/27 16:38:36;;;;;;;;;;;;;;;;;;5118342;28;20234;-56
2021/03/27 16:41:03;;;;;;;;;;;;;;;;;;5118558;28;19911;-47
2021/03/27 16:43:29;;;;;;;;;;;;;;;;;;5080686;28;19919;-54